sensor_id;sensor_type;location;lat;lon;timestamp;pressure;altitude;pressure_sealevel;temperature;humidity
61434;BME280;47300;46.192;9.000;2023-01-04T00:00:07;99624.75;;;8.33;100.00
61434;BME280;47300;46.192;9.000;2023-01-04T00:02:32;99633.50;;;8.33;100.00
61434;BME280;47300;46.192;9.000;2023-01-04T00:04:58;99629.13;;;8.32;100.00
61434;BME280;47300;46.192;9.000;2023-01-04T00:07:23;99627.22;;;8.25;100.00
61434;BME280;47300;46.192;9.000;2023-01-04T00:09:48;99633.16;;;8.18;100.00
61434;BME280;47300;46.192;9.000;2023-01-04T00:12:13;99631.41;;;8.18;100.00
61434;BME280;47300;46.192;9.000;2023-01-04T00:14:38;99627.88;;;8.16;100.00
61434;BME280;47300;46.192;9.000;2023-01-04T00:17:04;99627.78;;;8.13;100.00
61434;BME280;47300;46.192;9.000;2023-01-04T00:19:29;99617.22;;;8.08;100.00
61434;BME280;47300;46.192;9.000;2023-01-04T00:21:54;99620.81;;;8.12;100.00
61434;BME280;47300;46.192;9.000;2023-01-04T00:24:19;99617.34;;;8.13;100.00
61434;BME280;47300;46.192;9.000;2023-01-04T00:26:44;99608.44;;;8.06;100.00
61434;BME280;47300;46.192;9.000;2023-01-04T00:29:10;99609.38;;;8.08;100.00
61434;BME280;47300;46.192;9.000;2023-01-04T00:31:35;99604.88;;;8.03;100.00
61434;BME280;47300;46.192;9.000;2023-01-04T00:34:01;99606.53;;;7.99;100.00
61434;BME280;47300;46.192;9.000;2023-01-04T00:36:27;99613.31;;;7.92;100.00
61434;BME280;47300;46.192;9.000;2023-01-04T00:38:53;99613.31;;;7.92;100.00
61434;BME280;47300;46.192;9.000;2023-01-04T00:44:11;99627.91;;;7.82;100.00
61434;BME280;47300;46.192;9.000;2023-01-04T00:46:37;99615.41;;;7.71;100.00
61434;BME280;47300;46.192;9.000;2023-01-04T00:49:02;99617.41;;;7.81;100.00
61434;BME280;47300;46.192;9.000;2023-01-04T00:51:29;99616.47;;;7.77;100.00
61434;BME280;47300;46.192;9.000;2023-01-04T00:53:54;99619.88;;;7.76;100.00
61434;BME280;47300;46.192;9.000;2023-01-04T00:56:20;99620.06;;;7.82;100.00
61434;BME280;47300;46.192;9.000;2023-01-04T00:58:45;99620.00;;;7.81;100.00
61434;BME280;47300;46.192;9.000;2023-01-04T01:01:10;99622.34;;;7.70;100.00
61434;BME280;47300;46.192;9.000;2023-01-04T01:03:35;99622.34;;;7.70;100.00
61434;BME280;47300;46.192;9.000;2023-01-04T01:06:01;99619.72;;;7.68;100.00
61434;BME280;47300;46.192;9.000;2023-01-04T01:08:26;99619.63;;;7.65;100.00
61434;BME280;47300;46.192;9.000;2023-01-04T01:10:52;99623.94;;;7.63;100.00
61434;BME280;47300;46.192;9.000;2023-01-04T01:13:18;99623.56;;;7.49;100.00
61434;BME280;47300;46.192;9.000;2023-01-04T01:15:44;99628.03;;;7.55;100.00
61434;BME280;47300;46.192;9.000;2023-01-04T01:18:09;99622.94;;;7.60;100.00
61434;BME280;47300;46.192;9.000;2023-01-04T01:20:34;99631.47;;;7.52;100.00
61434;BME280;47300;46.192;9.000;2023-01-04T01:23:04;99633.38;;;7.58;100.00
61434;BME280;47300;46.192;9.000;2023-01-04T01:25:31;99632.84;;;7.39;100.00
61434;BME280;47300;46.192;9.000;2023-01-04T01:27:57;99636.38;;;7.40;100.00
61434;BME280;47300;46.192;9.000;2023-01-04T01:30:22;99625.91;;;7.40;100.00
61434;BME280;47300;46.192;9.000;2023-01-04T01:32:47;99628.63;;;7.45;100.00
61434;BME280;47300;46.192;9.000;2023-01-04T01:35:13;99619.47;;;7.27;100.00
61434;BME280;47300;46.192;9.000;2023-01-04T01:37:38;99616.97;;;7.32;100.00
61434;BME280;47300;46.192;9.000;2023-01-04T01:40:03;99615.34;;;7.35;100.00
61434;BME280;47300;46.192;9.000;2023-01-04T01:42:29;99619.56;;;7.30;100.00
61434;BME280;47300;46.192;9.000;2023-01-04T01:44:56;99623.03;;;7.31;100.00
61434;BME280;47300;46.192;9.000;2023-01-04T01:47:23;99622.91;;;7.26;100.00
61434;BME280;47300;46.192;9.000;2023-01-04T01:49:50;99634.22;;;7.25;100.00
61434;BME280;47300;46.192;9.000;2023-01-04T01:52:17;99642.16;;;7.30;100.00
61434;BME280;47300;46.192;9.000;2023-01-04T01:54:45;99649.28;;;7.35;100.00
61434;BME280;47300;46.192;9.000;2023-01-04T01:57:12;99652.88;;;7.39;100.00
61434;BME280;47300;46.192;9.000;2023-01-04T01:59:39;99653.75;;;7.39;100.00
61434;BME280;47300;46.192;9.000;2023-01-04T02:02:06;99657.81;;;7.30;100.00
61434;BME280;47300;46.192;9.000;2023-01-04T02:04:31;99653.59;;;7.33;100.00
61434;BME280;47300;46.192;9.000;2023-01-04T02:06:56;99661.34;;;7.30;100.00
61434;BME280;47300;46.192;9.000;2023-01-04T02:09:22;99650.75;;;7.26;100.00
61434;BME280;47300;46.192;9.000;2023-01-04T02:11:48;99640.13;;;7.19;100.00
61434;BME280;47300;46.192;9.000;2023-01-04T02:14:13;99641.41;;;7.03;100.00
61434;BME280;47300;46.192;9.000;2023-01-04T02:17:05;99638.66;;;6.99;100.00
61434;BME280;47300;46.192;9.000;2023-01-04T02:25:06;99634.56;;;7.07;100.00
61434;BME280;47300;46.192;9.000;2023-01-04T02:32:50;99641.94;;;6.91;100.00
61434;BME280;47300;46.192;9.000;2023-01-04T02:35:24;99639.13;;;6.85;100.00
61434;BME280;47300;46.192;9.000;2023-01-04T02:38:13;99633.22;;;6.91;100.00
61434;BME280;47300;46.192;9.000;2023-01-04T02:40:48;99640.13;;;6.89;100.00
61434;BME280;47300;46.192;9.000;2023-01-04T02:43:26;99627.84;;;6.85;100.00
61434;BME280;47300;46.192;9.000;2023-01-04T02:46:15;99626.09;;;6.85;100.00
61434;BME280;47300;46.192;9.000;2023-01-04T02:48:41;99622.59;;;6.85;100.00
61434;BME280;47300;46.192;9.000;2023-01-04T02:51:30;99623.38;;;6.82;100.00
61434;BME280;47300;46.192;9.000;2023-01-04T02:53:56;99618.09;;;6.80;100.00
61434;BME280;47300;46.192;9.000;2023-01-04T03:07:36;99620.13;;;6.89;100.00
61434;BME280;47300;46.192;9.000;2023-01-04T03:10:07;99632.47;;;6.95;100.00
61434;BME280;47300;46.192;9.000;2023-01-04T03:12:37;99627.78;;;6.83;100.00
61434;BME280;47300;46.192;9.000;2023-01-04T03:15:21;99628.53;;;6.80;100.00
61434;BME280;47300;46.192;9.000;2023-01-04T03:17:54;99633.56;;;6.73;100.00
61434;BME280;47300;46.192;9.000;2023-01-04T03:20:21;99633.22;;;6.62;100.00
61434;BME280;47300;46.192;9.000;2023-01-04T03:22:49;99631.78;;;6.72;100.00
61434;BME280;47300;46.192;9.000;2023-01-04T03:25:42;99630.75;;;6.66;100.00
61434;BME280;47300;46.192;9.000;2023-01-04T03:28:29;99640.31;;;6.66;100.00
61434;BME280;47300;46.192;9.000;2023-01-04T03:31:16;99624.50;;;6.61;100.00
61434;BME280;47300;46.192;9.000;2023-01-04T03:34:02;99630.38;;;6.54;100.00
61434;BME280;47300;46.192;9.000;2023-01-04T03:37:02;99623.88;;;6.41;100.00
61434;BME280;47300;46.192;9.000;2023-01-04T03:39:34;99634.41;;;5.91;100.00
61434;BME280;47300;46.192;9.000;2023-01-04T03:42:26;99625.31;;;5.79;100.00
61434;BME280;47300;46.192;9.000;2023-01-04T03:45:13;99626.09;;;6.01;100.00
61434;BME280;47300;46.192;9.000;2023-01-04T03:48:09;99629.19;;;5.91;100.00
61434;BME280;47300;46.192;9.000;2023-01-04T03:53:21;99622.75;;;6.05;100.00
61434;BME280;47300;46.192;9.000;2023-01-04T03:55:47;99630.66;;;6.08;100.00
61434;BME280;47300;46.192;9.000;2023-01-04T03:58:13;99625.56;;;6.12;100.00
61434;BME280;47300;46.192;9.000;2023-01-04T04:00:38;99617.00;;;6.16;100.00
61434;BME280;47300;46.192;9.000;2023-01-04T04:03:05;99617.00;;;6.16;100.00
61434;BME280;47300;46.192;9.000;2023-01-04T04:05:34;99621.47;;;6.20;100.00
61434;BME280;47300;46.192;9.000;2023-01-04T04:08:20;99616.31;;;5.96;100.00
61434;BME280;47300;46.192;9.000;2023-01-04T04:11:00;99612.03;;;5.98;100.00
61434;BME280;47300;46.192;9.000;2023-01-04T04:13:47;99612.97;;;6.00;100.00
61434;BME280;47300;46.192;9.000;2023-01-04T04:16:12;99617.19;;;5.70;100.00
61434;BME280;47300;46.192;9.000;2023-01-04T04:18:37;99617.47;;;5.78;100.00
61434;BME280;47300;46.192;9.000;2023-01-04T04:21:03;99624.84;;;5.91;100.00
61434;BME280;47300;46.192;9.000;2023-01-04T04:23:28;99612.41;;;6.08;100.00
61434;BME280;47300;46.192;9.000;2023-01-04T04:25:53;99614.25;;;6.11;100.00
61434;BME280;47300;46.192;9.000;2023-01-04T04:28:18;99609.22;;;6.17;100.00
61434;BME280;47300;46.192;9.000;2023-01-04T04:30:43;99603.97;;;6.16;100.00
61434;BME280;47300;46.192;9.000;2023-01-04T04:33:08;99611.84;;;6.17;100.00
61434;BME280;47300;46.192;9.000;2023-01-04T04:35:34;99612.81;;;6.21;100.00
61434;BME280;47300;46.192;9.000;2023-01-04T04:37:59;99617.69;;;6.10;100.00
61434;BME280;47300;46.192;9.000;2023-01-04T04:40:24;99608.19;;;6.12;100.00
61434;BME280;47300;46.192;9.000;2023-01-04T04:43:08;99617.38;;;6.01;100.00
61434;BME280;47300;46.192;9.000;2023-01-04T04:45:33;99611.72;;;5.62;100.00
61434;BME280;47300;46.192;9.000;2023-01-04T04:47:58;99612.72;;;5.92;100.00
61434;BME280;47300;46.192;9.000;2023-01-04T04:50:23;99604.56;;;6.07;100.00
61434;BME280;47300;46.192;9.000;2023-01-04T04:52:49;99608.41;;;6.18;100.00
61434;BME280;47300;46.192;9.000;2023-01-04T04:55:14;99602.25;;;6.16;100.00
61434;BME280;47300;46.192;9.000;2023-01-04T04:57:39;99601.72;;;6.01;100.00
61434;BME280;47300;46.192;9.000;2023-01-04T05:00:04;99606.88;;;5.99;100.00
61434;BME280;47300;46.192;9.000;2023-01-04T05:02:30;99610.44;;;6.01;100.00
61434;BME280;47300;46.192;9.000;2023-01-04T05:04:55;99620.75;;;5.98;100.00
61434;BME280;47300;46.192;9.000;2023-01-04T05:07:20;99611.00;;;6.18;100.00
61434;BME280;47300;46.192;9.000;2023-01-04T05:09:45;99618.91;;;6.21;100.00
61434;BME280;47300;46.192;9.000;2023-01-04T05:12:11;99611.19;;;6.25;100.00
61434;BME280;47300;46.192;9.000;2023-01-04T05:14:55;99612.38;;;6.07;100.00
61434;BME280;47300;46.192;9.000;2023-01-04T05:17:20;99612.97;;;6.00;100.00
61434;BME280;47300;46.192;9.000;2023-01-04T05:19:45;99614.66;;;5.72;100.00
61434;BME280;47300;46.192;9.000;2023-01-04T05:22:10;99617.25;;;5.72;100.00
61434;BME280;47300;46.192;9.000;2023-01-04T05:24:35;99621.81;;;5.53;100.00
61434;BME280;47300;46.192;9.000;2023-01-04T05:27:01;99624.53;;;5.56;100.00
61434;BME280;47300;46.192;9.000;2023-01-04T05:29:26;99616.25;;;5.68;100.00
61434;BME280;47300;46.192;9.000;2023-01-04T05:32:24;99614.13;;;5.82;100.00
61434;BME280;47300;46.192;9.000;2023-01-04T05:34:49;99621.84;;;5.79;100.00
61434;BME280;47300;46.192;9.000;2023-01-04T05:37:14;99617.84;;;5.89;100.00
61434;BME280;47300;46.192;9.000;2023-01-04T05:39:39;99622.44;;;5.98;100.00
61434;BME280;47300;46.192;9.000;2023-01-04T05:42:04;99621.81;;;6.03;100.00
61434;BME280;47300;46.192;9.000;2023-01-04T05:44:48;99627.19;;;6.08;100.00
61434;BME280;47300;46.192;9.000;2023-01-04T05:47:13;99628.13;;;5.86;100.00
61434;BME280;47300;46.192;9.000;2023-01-04T05:49:39;99632.56;;;5.88;100.00
61434;BME280;47300;46.192;9.000;2023-01-04T05:52:04;99630.50;;;5.78;100.00
61434;BME280;47300;46.192;9.000;2023-01-04T05:54:29;99634.28;;;5.62;100.00
61434;BME280;47300;46.192;9.000;2023-01-04T05:56:54;99631.41;;;5.54;100.00
61434;BME280;47300;46.192;9.000;2023-01-04T05:59:19;99639.78;;;5.45;100.00
61434;BME280;47300;46.192;9.000;2023-01-04T06:01:45;99638.03;;;5.70;100.00
61434;BME280;47300;46.192;9.000;2023-01-04T06:04:10;99635.84;;;5.83;100.00
61434;BME280;47300;46.192;9.000;2023-01-04T06:06:35;99634.41;;;5.91;100.00
61434;BME280;47300;46.192;9.000;2023-01-04T06:09:00;99641.41;;;5.92;100.00
61434;BME280;47300;46.192;9.000;2023-01-04T06:11:25;99646.38;;;5.86;100.00
61434;BME280;47300;46.192;9.000;2023-01-04T06:13:51;99647.34;;;5.88;100.00
61434;BME280;47300;46.192;9.000;2023-01-04T06:16:16;99644.88;;;5.92;100.00
61434;BME280;47300;46.192;9.000;2023-01-04T06:18:41;99643.09;;;5.91;100.00
61434;BME280;47300;46.192;9.000;2023-01-04T06:21:06;99647.56;;;5.96;100.00
61434;BME280;47300;46.192;9.000;2023-01-04T06:23:31;99642.13;;;5.88;100.00
61434;BME280;47300;46.192;9.000;2023-01-04T06:25:56;99648.28;;;5.90;100.00
61434;BME280;47300;46.192;9.000;2023-01-04T06:28:22;99649.41;;;5.72;100.00
61434;BME280;47300;46.192;9.000;2023-01-04T06:30:47;99648.00;;;5.82;100.00
61434;BME280;47300;46.192;9.000;2023-01-04T06:33:12;99648.66;;;5.76;100.00
61434;BME280;47300;46.192;9.000;2023-01-04T06:35:37;99653.22;;;5.82;100.00
61434;BME280;47300;46.192;9.000;2023-01-04T06:38:02;99645.81;;;5.44;100.00
61434;BME280;47300;46.192;9.000;2023-01-04T06:40:28;99650.09;;;5.42;100.00
61434;BME280;47300;46.192;9.000;2023-01-04T06:42:53;99653.06;;;5.53;100.00
61434;BME280;47300;46.192;9.000;2023-01-04T06:45:18;99660.16;;;5.57;100.00
61434;BME280;47300;46.192;9.000;2023-01-04T06:47:43;99665.19;;;5.28;100.00
61434;BME280;47300;46.192;9.000;2023-01-04T06:50:09;99658.78;;;5.18;100.00
61434;BME280;47300;46.192;9.000;2023-01-04T06:52:34;99671.63;;;5.38;100.00
61434;BME280;47300;46.192;9.000;2023-01-04T06:55:00;99668.19;;;5.39;100.00
61434;BME280;47300;46.192;9.000;2023-01-04T06:57:25;99667.53;;;5.45;100.00
61434;BME280;47300;46.192;9.000;2023-01-04T06:59:51;99666.72;;;5.21;100.00
61434;BME280;47300;46.192;9.000;2023-01-04T07:02:16;99664.78;;;4.93;100.00
61434;BME280;47300;46.192;9.000;2023-01-04T07:04:42;99669.84;;;5.13;100.00
61434;BME280;47300;46.192;9.000;2023-01-04T07:07:07;99680.81;;;5.28;100.00
61434;BME280;47300;46.192;9.000;2023-01-04T07:09:32;99676.81;;;5.36;100.00
61434;BME280;47300;46.192;9.000;2023-01-04T07:11:58;99684.13;;;5.47;100.00
61434;BME280;47300;46.192;9.000;2023-01-04T07:14:23;99688.50;;;5.48;100.00
61434;BME280;47300;46.192;9.000;2023-01-04T07:16:49;99687.59;;;5.47;100.00
61434;BME280;47300;46.192;9.000;2023-01-04T07:19:14;99690.38;;;5.52;100.00
61434;BME280;47300;46.192;9.000;2023-01-04T07:21:39;99687.59;;;5.47;100.00
61434;BME280;47300;46.192;9.000;2023-01-04T07:24:05;99692.94;;;5.50;100.00
61434;BME280;47300;46.192;9.000;2023-01-04T07:26:30;99692.13;;;5.29;100.00
61434;BME280;47300;46.192;9.000;2023-01-04T07:28:55;99697.22;;;5.26;100.00
61434;BME280;47300;46.192;9.000;2023-01-04T07:31:39;99689.81;;;5.36;100.00
61434;BME280;47300;46.192;9.000;2023-01-04T07:34:05;99689.97;;;5.41;100.00
61434;BME280;47300;46.192;9.000;2023-01-04T07:36:31;99698.56;;;5.14;100.00
61434;BME280;47300;46.192;9.000;2023-01-04T07:38:57;99699.28;;;4.89;100.00
61434;BME280;47300;46.192;9.000;2023-01-04T07:41:23;99701.50;;;5.01;100.00
61434;BME280;47300;46.192;9.000;2023-01-04T07:43:48;99700.91;;;5.08;100.00
61434;BME280;47300;46.192;9.000;2023-01-04T07:46:13;99698.19;;;5.05;100.00
61434;BME280;47300;46.192;9.000;2023-01-04T07:48:38;99700.00;;;4.85;100.00
61434;BME280;47300;46.192;9.000;2023-01-04T07:51:03;99700.75;;;5.03;100.00
61434;BME280;47300;46.192;9.000;2023-01-04T07:53:31;99687.31;;;5.15;100.00
61434;BME280;47300;46.192;9.000;2023-01-04T07:55:56;99686.09;;;5.30;100.00
61434;BME280;47300;46.192;9.000;2023-01-04T07:58:22;99689.88;;;5.38;100.00
61434;BME280;47300;46.192;9.000;2023-01-04T08:00:47;99695.25;;;5.43;100.00
61434;BME280;47300;46.192;9.000;2023-01-04T08:03:12;99693.69;;;5.48;100.00
61434;BME280;47300;46.192;9.000;2023-01-04T08:05:37;99692.94;;;5.50;100.00
61434;BME280;47300;46.192;9.000;2023-01-04T08:08:02;99689.50;;;5.52;100.00
61434;BME280;47300;46.192;9.000;2023-01-04T08:10:28;99695.78;;;5.58;100.00
61434;BME280;47300;46.192;9.000;2023-01-04T08:12:53;99698.84;;;5.46;100.00
61434;BME280;47300;46.192;9.000;2023-01-04T08:15:18;99705.59;;;5.41;100.00
61434;BME280;47300;46.192;9.000;2023-01-04T08:17:44;99715.50;;;5.27;100.00
61434;BME280;47300;46.192;9.000;2023-01-04T08:20:09;99713.69;;;5.49;100.00
61434;BME280;47300;46.192;9.000;2023-01-04T08:22:34;99716.84;;;5.64;100.00
61434;BME280;47300;46.192;9.000;2023-01-04T08:24:59;99705.88;;;5.73;100.00
61434;BME280;47300;46.192;9.000;2023-01-04T08:27:25;99704.19;;;6.00;100.00
61434;BME280;47300;46.192;9.000;2023-01-04T08:29:50;99698.53;;;6.12;100.00
61434;BME280;47300;46.192;9.000;2023-01-04T08:32:15;99703.97;;;5.93;100.00
61434;BME280;47300;46.192;9.000;2023-01-04T08:34:40;99703.09;;;5.93;100.00
61434;BME280;47300;46.192;9.000;2023-01-04T08:37:05;99693.56;;;5.93;100.00
61434;BME280;47300;46.192;9.000;2023-01-04T08:39:31;99696.63;;;5.82;100.00
61434;BME280;47300;46.192;9.000;2023-01-04T08:42:00;99696.03;;;5.89;100.00
61434;BME280;47300;46.192;9.000;2023-01-04T08:44:25;99700.84;;;5.78;100.00
61434;BME280;47300;46.192;9.000;2023-01-04T08:46:51;99700.53;;;5.69;100.00
61434;BME280;47300;46.192;9.000;2023-01-04T08:49:17;99702.84;;;5.61;100.00
61434;BME280;47300;46.192;9.000;2023-01-04T08:51:42;99703.69;;;5.60;100.00
61434;BME280;47300;46.192;9.000;2023-01-04T08:54:08;99711.44;;;5.58;100.00
61434;BME280;47300;46.192;9.000;2023-01-04T08:56:34;99711.59;;;5.63;100.00
61434;BME280;47300;46.192;9.000;2023-01-04T08:58:59;99707.94;;;5.82;100.00
61434;BME280;47300;46.192;9.000;2023-01-04T09:01:24;99701.53;;;6.22;100.00
61434;BME280;47300;46.192;9.000;2023-01-04T09:03:50;99704.06;;;6.47;100.00
61434;BME280;47300;46.192;9.000;2023-01-04T09:06:15;99695.97;;;6.94;100.00
61434;BME280;47300;46.192;9.000;2023-01-04T09:08:41;99699.31;;;7.49;100.00
61434;BME280;47300;46.192;9.000;2023-01-04T09:11:07;99696.38;;;7.69;100.00
61434;BME280;47300;46.192;9.000;2023-01-04T09:13:33;99696.78;;;8.17;100.00
61434;BME280;47300;46.192;9.000;2023-01-04T09:16:00;99695.75;;;8.47;100.00
61434;BME280;47300;46.192;9.000;2023-01-04T09:18:25;99697.34;;;8.40;100.00
61434;BME280;47300;46.192;9.000;2023-01-04T09:20:51;99700.50;;;8.62;100.00
61434;BME280;47300;46.192;9.000;2023-01-04T09:23:16;99705.72;;;8.60;100.00
61434;BME280;47300;46.192;9.000;2023-01-04T09:25:41;99699.13;;;7.74;100.00
61434;BME280;47300;46.192;9.000;2023-01-04T09:28:06;99699.50;;;7.56;100.00
61434;BME280;47300;46.192;9.000;2023-01-04T09:30:31;99703.81;;;7.55;100.00
61434;BME280;47300;46.192;9.000;2023-01-04T09:32:57;99701.00;;;7.47;100.00
61434;BME280;47300;46.192;9.000;2023-01-04T09:35:22;99705.03;;;7.66;100.00
61434;BME280;47300;46.192;9.000;2023-01-04T09:37:47;99704.50;;;7.80;100.00
61434;BME280;47300;46.192;9.000;2023-01-04T09:40:20;99712.09;;;8.03;100.00
61434;BME280;47300;46.192;9.000;2023-01-04T09:42:46;99712.63;;;8.23;98.36
61434;BME280;47300;46.192;9.000;2023-01-04T09:47:40;99714.09;;;8.13;95.34
61434;BME280;47300;46.192;9.000;2023-01-04T09:50:12;99704.69;;;8.20;95.46
61434;BME280;47300;46.192;9.000;2023-01-04T09:55:08;99694.34;;;8.24;95.91
61434;BME280;47300;46.192;9.000;2023-01-04T09:57:39;99705.72;;;7.93;96.96
61434;BME280;47300;46.192;9.000;2023-01-04T10:02:43;99694.81;;;8.45;98.14
61434;BME280;47300;46.192;9.000;2023-01-04T10:05:17;99692.97;;;8.39;95.65
61434;BME280;47300;46.192;9.000;2023-01-04T10:07:44;99686.59;;;8.29;97.52
61434;BME280;47300;46.192;9.000;2023-01-04T10:10:13;99684.06;;;8.32;98.40
61434;BME280;47300;46.192;9.000;2023-01-04T10:15:47;99661.09;;;8.56;96.01
61434;BME280;47300;46.192;9.000;2023-01-04T10:23:24;99638.59;;;8.62;92.76
61434;BME280;47300;46.192;9.000;2023-01-04T10:25:54;99642.31;;;8.74;94.83
61434;BME280;47300;46.192;9.000;2023-01-04T10:28:44;99642.28;;;9.12;95.08
61434;BME280;47300;46.192;9.000;2023-01-04T10:36:47;99620.91;;;9.82;92.12
61434;BME280;47300;46.192;9.000;2023-01-04T10:39:17;99614.53;;;9.22;92.54
61434;BME280;47300;46.192;9.000;2023-01-04T10:41:54;99616.81;;;9.05;96.71
61434;BME280;47300;46.192;9.000;2023-01-04T10:44:36;99612.03;;;8.85;97.29
61434;BME280;47300;46.192;9.000;2023-01-04T10:51:59;99602.50;;;9.81;97.45
61434;BME280;47300;46.192;9.000;2023-01-04T10:56:59;99592.81;;;10.29;92.40
61434;BME280;47300;46.192;9.000;2023-01-04T10:59:34;99591.47;;;10.53;93.39
61434;BME280;47300;46.192;9.000;2023-01-04T11:02:05;99588.09;;;10.63;89.13
61434;BME280;47300;46.192;9.000;2023-01-04T11:04:42;99586.78;;;10.36;88.46
61434;BME280;47300;46.192;9.000;2023-01-04T11:12:04;99582.78;;;10.03;88.03
61434;BME280;47300;46.192;9.000;2023-01-04T11:14:30;99584.22;;;9.84;90.41
61434;BME280;47300;46.192;9.000;2023-01-04T11:16:56;99580.66;;;9.80;93.20
61434;BME280;47300;46.192;9.000;2023-01-04T11:19:23;99587.56;;;10.27;92.70
61434;BME280;47300;46.192;9.000;2023-01-04T11:21:50;99585.00;;;10.32;91.18
61434;BME280;47300;46.192;9.000;2023-01-04T11:24:21;99580.50;;;10.82;91.14
61434;BME280;47300;46.192;9.000;2023-01-04T11:26:46;99574.78;;;11.19;88.99
61434;BME280;47300;46.192;9.000;2023-01-04T11:29:27;99563.75;;;11.52;85.98
61434;BME280;47300;46.192;9.000;2023-01-04T11:31:56;99550.84;;;11.76;85.22
61434;BME280;47300;46.192;9.000;2023-01-04T11:37:23;99544.75;;;11.84;83.72
61434;BME280;47300;46.192;9.000;2023-01-04T11:39:48;99533.38;;;11.87;84.91
61434;BME280;47300;46.192;9.000;2023-01-04T11:42:20;99528.13;;;11.87;84.18
61434;BME280;47300;46.192;9.000;2023-01-04T11:44:56;99531.88;;;11.18;84.13
61434;BME280;47300;46.192;9.000;2023-01-04T11:47:22;99521.25;;;11.07;85.91
61434;BME280;47300;46.192;9.000;2023-01-04T11:49:52;99514.81;;;11.67;84.14
61434;BME280;47300;46.192;9.000;2023-01-04T11:52:30;99511.66;;;11.14;84.47
61434;BME280;47300;46.192;9.000;2023-01-04T11:55:06;99515.91;;;11.01;87.33
61434;BME280;47300;46.192;9.000;2023-01-04T11:57:39;99517.06;;;11.28;89.52
61434;BME280;47300;46.192;9.000;2023-01-04T12:00:08;99517.25;;;11.48;85.67
61434;BME280;47300;46.192;9.000;2023-01-04T12:02:34;99516.41;;;11.51;83.23
61434;BME280;47300;46.192;9.000;2023-01-04T12:04:59;99510.53;;;11.81;85.27
61434;BME280;47300;46.192;9.000;2023-01-04T12:07:31;99518.72;;;12.19;81.96
61434;BME280;47300;46.192;9.000;2023-01-04T12:09:58;99516.88;;;12.04;79.98
61434;BME280;47300;46.192;9.000;2023-01-04T12:12:26;99512.34;;;11.87;81.96
61434;BME280;47300;46.192;9.000;2023-01-04T12:14:52;99504.50;;;11.95;81.93
61434;BME280;47300;46.192;9.000;2023-01-04T12:19:43;99497.19;;;11.58;81.58
61434;BME280;47300;46.192;9.000;2023-01-04T12:22:17;99493.91;;;11.88;81.08
61434;BME280;47300;46.192;9.000;2023-01-04T12:24:43;99487.13;;;12.19;81.77
61434;BME280;47300;46.192;9.000;2023-01-04T12:27:11;99491.47;;;12.09;80.25
61434;BME280;47300;46.192;9.000;2023-01-04T12:29:42;99491.56;;;12.29;79.84
61434;BME280;47300;46.192;9.000;2023-01-04T12:34:42;99482.88;;;12.44;80.24
61434;BME280;47300;46.192;9.000;2023-01-04T12:37:08;99488.69;;;11.90;80.01
61434;BME280;47300;46.192;9.000;2023-01-04T12:39:35;99481.56;;;11.78;80.85
61434;BME280;47300;46.192;9.000;2023-01-04T12:50:02;99475.38;;;11.71;82.15
61434;BME280;47300;46.192;9.000;2023-01-04T12:54:54;99462.22;;;11.71;81.71
61434;BME280;47300;46.192;9.000;2023-01-04T12:57:39;99464.56;;;11.36;79.09
61434;BME280;47300;46.192;9.000;2023-01-04T13:00:06;99454.66;;;11.07;79.23
61434;BME280;47300;46.192;9.000;2023-01-04T13:02:32;99454.69;;;11.10;81.36
61434;BME280;47300;46.192;9.000;2023-01-04T13:05:02;99447.84;;;11.24;82.00
61434;BME280;47300;46.192;9.000;2023-01-04T13:07:47;99442.44;;;11.12;81.20
61434;BME280;47300;46.192;9.000;2023-01-04T13:15:44;99437.25;;;11.17;83.34
61434;BME280;47300;46.192;9.000;2023-01-04T13:20:59;99427.88;;;11.51;84.03
61434;BME280;47300;46.192;9.000;2023-01-04T13:23:25;99428.88;;;11.66;79.51
61434;BME280;47300;46.192;9.000;2023-01-04T13:25:51;99426.22;;;11.64;78.26
61434;BME280;47300;46.192;9.000;2023-01-04T13:28:16;99433.19;;;11.53;76.83
61434;BME280;47300;46.192;9.000;2023-01-04T13:30:42;99426.88;;;11.35;77.92
61434;BME280;47300;46.192;9.000;2023-01-04T13:33:20;99426.09;;;11.44;78.65
61434;BME280;47300;46.192;9.000;2023-01-04T13:38:42;99412.03;;;11.39;78.01
61434;BME280;47300;46.192;9.000;2023-01-04T13:41:16;99409.41;;;11.42;77.55
61434;BME280;47300;46.192;9.000;2023-01-04T13:43:47;99416.50;;;11.48;81.52
61434;BME280;47300;46.192;9.000;2023-01-04T13:46:19;99403.38;;;11.54;77.89
61434;BME280;47300;46.192;9.000;2023-01-04T13:48:45;99407.81;;;11.61;78.99
61434;BME280;47300;46.192;9.000;2023-01-04T13:51:25;99410.34;;;11.46;79.01
61434;BME280;47300;46.192;9.000;2023-01-04T13:53:57;99408.47;;;11.32;79.47
61434;BME280;47300;46.192;9.000;2023-01-04T13:56:24;99400.41;;;11.10;nan
61434;BME280;47300;46.192;9.000;2023-01-04T13:58:49;99404.78;;;11.11;83.50
61434;BME280;47300;46.192;9.000;2023-01-04T14:01:16;99407.25;;;10.96;83.52
61434;BME280;47300;46.192;9.000;2023-01-04T14:03:44;99409.78;;;10.82;85.55
61434;BME280;47300;46.192;9.000;2023-01-04T14:06:12;99399.09;;;10.66;85.32
61434;BME280;47300;46.192;9.000;2023-01-04T14:12:07;99410.84;;;11.06;83.23
61434;BME280;47300;46.192;9.000;2023-01-04T14:17:11;99406.69;;;11.26;83.22
61434;BME280;47300;46.192;9.000;2023-01-04T14:22:18;99398.81;;;11.31;86.48
61434;BME280;47300;46.192;9.000;2023-01-04T14:24:44;99397.06;;;11.32;88.62
61434;BME280;47300;46.192;9.000;2023-01-04T14:29:53;99395.09;;;11.04;92.45
61434;BME280;47300;46.192;9.000;2023-01-04T14:32:18;99390.56;;;10.86;94.38
61434;BME280;47300;46.192;9.000;2023-01-04T14:34:43;99384.28;;;10.73;96.38
61434;BME280;47300;46.192;9.000;2023-01-04T14:37:09;99379.84;;;10.67;96.10
61434;BME280;47300;46.192;9.000;2023-01-04T14:39:34;99375.47;;;10.68;97.22
61434;BME280;47300;46.192;9.000;2023-01-04T14:41:59;99373.69;;;10.65;99.57
61434;BME280;47300;46.192;9.000;2023-01-04T14:44:28;99373.69;;;10.64;99.79
61434;BME280;47300;46.192;9.000;2023-01-04T14:46:55;99379.03;;;10.75;99.36